sensor_id;sensor_type;location;lat;lon;timestamp;temperature;humidity
24614;DHT22;12760;46.296;25.290;2023-08-07T00:00:30;20.60;99.90
24614;DHT22;12760;46.296;25.290;2023-08-07T00:02:55;20.30;99.90
24614;DHT22;12760;46.296;25.290;2023-08-07T00:05:21;20.00;99.90
24614;DHT22;12760;46.296;25.290;2023-08-07T00:07:47;20.20;99.90
24614;DHT22;12760;46.296;25.290;2023-08-07T00:10:13;20.30;99.90
24614;DHT22;12760;46.296;25.290;2023-08-07T00:12:40;20.30;99.90
24614;DHT22;12760;46.296;25.290;2023-08-07T00:15:06;20.30;99.90
24614;DHT22;12760;46.296;25.290;2023-08-07T00:17:32;20.30;99.90
24614;DHT22;12760;46.296;25.290;2023-08-07T00:19:57;20.40;99.90
24614;DHT22;12760;46.296;25.290;2023-08-07T00:22:23;20.20;99.90
24614;DHT22;12760;46.296;25.290;2023-08-07T00:24:50;20.10;99.90
24614;DHT22;12760;46.296;25.290;2023-08-07T00:27:16;20.10;99.90
24614;DHT22;12760;46.296;25.290;2023-08-07T00:29:42;20.20;99.90
24614;DHT22;12760;46.296;25.290;2023-08-07T00:32:08;20.20;99.90
24614;DHT22;12760;46.296;25.290;2023-08-07T00:34:34;20.20;99.90
24614;DHT22;12760;46.296;25.290;2023-08-07T00:37:00;20.00;99.90
24614;DHT22;12760;46.296;25.290;2023-08-07T00:39:25;20.10;99.90
24614;DHT22;12760;46.296;25.290;2023-08-07T00:41:51;20.10;99.90
24614;DHT22;12760;46.296;25.290;2023-08-07T00:44:17;20.20;99.90
24614;DHT22;12760;46.296;25.290;2023-08-07T00:46:43;20.20;99.90
24614;DHT22;12760;46.296;25.290;2023-08-07T00:49:10;20.30;99.90
24614;DHT22;12760;46.296;25.290;2023-08-07T00:51:38;20.10;99.90
24614;DHT22;12760;46.296;25.290;2023-08-07T00:54:05;20.10;99.90
24614;DHT22;12760;46.296;25.290;2023-08-07T00:56:32;19.80;99.90
24614;DHT22;12760;46.296;25.290;2023-08-07T00:59:01;19.90;99.90
24614;DHT22;12760;46.296;25.290;2023-08-07T01:01:27;19.60;99.90
24614;DHT22;12760;46.296;25.290;2023-08-07T01:03:53;19.50;99.90
24614;DHT22;12760;46.296;25.290;2023-08-07T01:06:19;19.60;99.90
24614;DHT22;12760;46.296;25.290;2023-08-07T01:08:45;19.40;99.90
24614;DHT22;12760;46.296;25.290;2023-08-07T01:16:50;19.10;99.90
24614;DHT22;12760;46.296;25.290;2023-08-07T01:19:27;19.40;99.90
24614;DHT22;12760;46.296;25.290;2023-08-07T01:22:19;19.20;99.90
24614;DHT22;12760;46.296;25.290;2023-08-07T01:24:47;19.50;99.90
24614;DHT22;12760;46.296;25.290;2023-08-07T01:32:26;19.70;99.90
24614;DHT22;12760;46.296;25.290;2023-08-07T01:34:54;19.30;99.90
24614;DHT22;12760;46.296;25.290;2023-08-07T01:37:22;19.20;99.90
24614;DHT22;12760;46.296;25.290;2023-08-07T01:39:49;19.20;99.90
24614;DHT22;12760;46.296;25.290;2023-08-07T01:42:16;19.20;99.90
24614;DHT22;12760;46.296;25.290;2023-08-07T01:44:42;19.00;99.90
24614;DHT22;12760;46.296;25.290;2023-08-07T01:47:07;18.90;99.90
24614;DHT22;12760;46.296;25.290;2023-08-07T01:49:33;18.90;99.90
24614;DHT22;12760;46.296;25.290;2023-08-07T01:51:59;19.00;99.90
24614;DHT22;12760;46.296;25.290;2023-08-07T01:54:25;19.00;99.90
24614;DHT22;12760;46.296;25.290;2023-08-07T01:56:50;18.90;99.90
24614;DHT22;12760;46.296;25.290;2023-08-07T01:59:16;18.70;99.90
24614;DHT22;12760;46.296;25.290;2023-08-07T02:01:42;18.60;99.90
24614;DHT22;12760;46.296;25.290;2023-08-07T02:04:07;18.80;99.90
24614;DHT22;12760;46.296;25.290;2023-08-07T02:06:33;18.80;99.90
24614;DHT22;12760;46.296;25.290;2023-08-07T02:08:59;19.10;99.90
24614;DHT22;12760;46.296;25.290;2023-08-07T02:11:24;19.10;99.90
24614;DHT22;12760;46.296;25.290;2023-08-07T02:13:50;19.20;99.90
24614;DHT22;12760;46.296;25.290;2023-08-07T02:16:15;18.90;99.90
24614;DHT22;12760;46.296;25.290;2023-08-07T02:18:41;18.90;99.90
24614;DHT22;12760;46.296;25.290;2023-08-07T02:21:07;19.00;99.90
24614;DHT22;12760;46.296;25.290;2023-08-07T02:23:33;18.90;99.90
24614;DHT22;12760;46.296;25.290;2023-08-07T02:25:59;19.10;99.90
24614;DHT22;12760;46.296;25.290;2023-08-07T02:28:25;19.20;99.90
24614;DHT22;12760;46.296;25.290;2023-08-07T02:30:51;19.20;99.90
24614;DHT22;12760;46.296;25.290;2023-08-07T02:33:19;19.10;99.90
24614;DHT22;12760;46.296;25.290;2023-08-07T02:35:45;18.80;99.90
24614;DHT22;12760;46.296;25.290;2023-08-07T02:38:11;18.60;99.90
24614;DHT22;12760;46.296;25.290;2023-08-07T02:40:37;18.50;99.90
24614;DHT22;12760;46.296;25.290;2023-08-07T02:43:03;18.30;99.90
24614;DHT22;12760;46.296;25.290;2023-08-07T02:45:28;18.30;99.90
24614;DHT22;12760;46.296;25.290;2023-08-07T02:47:54;17.90;99.90
24614;DHT22;12760;46.296;25.290;2023-08-07T02:50:20;17.90;99.90
24614;DHT22;12760;46.296;25.290;2023-08-07T02:52:45;18.10;99.90
24614;DHT22;12760;46.296;25.290;2023-08-07T02:55:11;18.30;99.90
24614;DHT22;12760;46.296;25.290;2023-08-07T02:57:37;18.20;99.90
24614;DHT22;12760;46.296;25.290;2023-08-07T03:00:03;18.00;99.90
24614;DHT22;12760;46.296;25.290;2023-08-07T03:02:29;18.10;99.90
24614;DHT22;12760;46.296;25.290;2023-08-07T03:04:54;17.90;99.90
24614;DHT22;12760;46.296;25.290;2023-08-07T03:07:20;17.80;99.90
24614;DHT22;12760;46.296;25.290;2023-08-07T03:09:46;17.90;99.90
24614;DHT22;12760;46.296;25.290;2023-08-07T03:12:12;17.90;99.90
24614;DHT22;12760;46.296;25.290;2023-08-07T03:14:38;18.10;99.90
24614;DHT22;12760;46.296;25.290;2023-08-07T03:17:04;18.10;99.90
24614;DHT22;12760;46.296;25.290;2023-08-07T03:19:30;18.20;99.90
24614;DHT22;12760;46.296;25.290;2023-08-07T03:21:55;18.10;99.90
24614;DHT22;12760;46.296;25.290;2023-08-07T03:24:21;18.10;99.90
24614;DHT22;12760;46.296;25.290;2023-08-07T03:26:47;18.20;99.90
24614;DHT22;12760;46.296;25.290;2023-08-07T03:29:14;17.90;99.90
24614;DHT22;12760;46.296;25.290;2023-08-07T03:31:40;17.80;99.90
24614;DHT22;12760;46.296;25.290;2023-08-07T03:34:06;17.60;99.90
24614;DHT22;12760;46.296;25.290;2023-08-07T03:36:31;17.60;99.90
24614;DHT22;12760;46.296;25.290;2023-08-07T03:38:57;17.60;99.90
24614;DHT22;12760;46.296;25.290;2023-08-07T03:41:23;17.70;99.90
24614;DHT22;12760;46.296;25.290;2023-08-07T03:43:48;17.90;99.90
24614;DHT22;12760;46.296;25.290;2023-08-07T03:46:14;17.70;99.90
24614;DHT22;12760;46.296;25.290;2023-08-07T03:48:40;17.50;99.90
24614;DHT22;12760;46.296;25.290;2023-08-07T03:51:06;17.50;99.90
24614;DHT22;12760;46.296;25.290;2023-08-07T03:53:33;17.70;99.90
24614;DHT22;12760;46.296;25.290;2023-08-07T03:55:59;17.70;99.90
24614;DHT22;12760;46.296;25.290;2023-08-07T03:58:25;17.80;99.90
24614;DHT22;12760;46.296;25.290;2023-08-07T04:00:51;18.00;99.90
24614;DHT22;12760;46.296;25.290;2023-08-07T04:03:18;17.90;99.90
24614;DHT22;12760;46.296;25.290;2023-08-07T04:05:44;17.90;99.90
24614;DHT22;12760;46.296;25.290;2023-08-07T04:08:10;17.60;99.90
24614;DHT22;12760;46.296;25.290;2023-08-07T04:10:35;17.80;99.90
24614;DHT22;12760;46.296;25.290;2023-08-07T04:13:01;18.10;99.90
24614;DHT22;12760;46.296;25.290;2023-08-07T04:15:26;18.30;99.90
24614;DHT22;12760;46.296;25.290;2023-08-07T04:17:52;18.40;99.90
24614;DHT22;12760;46.296;25.290;2023-08-07T04:20:18;18.40;99.90
24614;DHT22;12760;46.296;25.290;2023-08-07T04:22:45;18.50;99.90
24614;DHT22;12760;46.296;25.290;2023-08-07T04:25:12;18.50;99.90
24614;DHT22;12760;46.296;25.290;2023-08-07T04:27:37;18.60;99.90
24614;DHT22;12760;46.296;25.290;2023-08-07T04:30:05;18.60;99.90
24614;DHT22;12760;46.296;25.290;2023-08-07T04:32:31;18.60;99.90
24614;DHT22;12760;46.296;25.290;2023-08-07T04:34:56;18.60;99.90
24614;DHT22;12760;46.296;25.290;2023-08-07T04:37:22;18.60;99.90
24614;DHT22;12760;46.296;25.290;2023-08-07T04:39:48;18.30;99.90
24614;DHT22;12760;46.296;25.290;2023-08-07T04:42:13;18.30;99.90
24614;DHT22;12760;46.296;25.290;2023-08-07T04:44:39;18.40;99.90
24614;DHT22;12760;46.296;25.290;2023-08-07T04:47:05;18.40;99.90
24614;DHT22;12760;46.296;25.290;2023-08-07T04:49:31;18.50;99.90
24614;DHT22;12760;46.296;25.290;2023-08-07T04:51:56;18.60;99.90
24614;DHT22;12760;46.296;25.290;2023-08-07T04:54:22;18.70;99.90
24614;DHT22;12760;46.296;25.290;2023-08-07T04:56:48;18.70;99.90
24614;DHT22;12760;46.296;25.290;2023-08-07T04:59:14;18.50;99.90
24614;DHT22;12760;46.296;25.290;2023-08-07T05:01:39;18.00;99.90
24614;DHT22;12760;46.296;25.290;2023-08-07T05:04:05;17.80;99.90
24614;DHT22;12760;46.296;25.290;2023-08-07T05:06:31;17.80;99.90
24614;DHT22;12760;46.296;25.290;2023-08-07T05:08:57;17.60;99.90
24614;DHT22;12760;46.296;25.290;2023-08-07T05:11:22;18.00;99.90
24614;DHT22;12760;46.296;25.290;2023-08-07T05:13:48;18.00;99.90
24614;DHT22;12760;46.296;25.290;2023-08-07T05:16:14;18.20;99.90
24614;DHT22;12760;46.296;25.290;2023-08-07T05:18:40;18.40;99.90
24614;DHT22;12760;46.296;25.290;2023-08-07T05:21:05;18.40;99.90
24614;DHT22;12760;46.296;25.290;2023-08-07T05:23:34;18.20;99.90
24614;DHT22;12760;46.296;25.290;2023-08-07T05:25:59;18.10;99.90
24614;DHT22;12760;46.296;25.290;2023-08-07T05:28:25;18.20;99.90
24614;DHT22;12760;46.296;25.290;2023-08-07T05:30:51;17.90;99.90
24614;DHT22;12760;46.296;25.290;2023-08-07T05:33:16;18.10;99.90
24614;DHT22;12760;46.296;25.290;2023-08-07T05:35:42;18.20;99.90
24614;DHT22;12760;46.296;25.290;2023-08-07T05:38:08;18.00;99.90
24614;DHT22;12760;46.296;25.290;2023-08-07T05:40:33;18.10;99.90
24614;DHT22;12760;46.296;25.290;2023-08-07T05:43:02;18.30;99.90
24614;DHT22;12760;46.296;25.290;2023-08-07T05:45:28;18.30;99.90
24614;DHT22;12760;46.296;25.290;2023-08-07T05:47:54;18.40;99.90
24614;DHT22;12760;46.296;25.290;2023-08-07T05:50:19;18.50;99.90
24614;DHT22;12760;46.296;25.290;2023-08-07T05:52:45;18.70;99.90
24614;DHT22;12760;46.296;25.290;2023-08-07T05:55:11;18.90;99.90
24614;DHT22;12760;46.296;25.290;2023-08-07T05:57:36;18.80;99.90
24614;DHT22;12760;46.296;25.290;2023-08-07T06:00:03;18.70;99.90
24614;DHT22;12760;46.296;25.290;2023-08-07T06:02:29;18.60;99.90
24614;DHT22;12760;46.296;25.290;2023-08-07T06:04:54;18.60;99.90
24614;DHT22;12760;46.296;25.290;2023-08-07T06:07:20;18.70;99.90
24614;DHT22;12760;46.296;25.290;2023-08-07T06:09:46;18.80;99.90
24614;DHT22;12760;46.296;25.290;2023-08-07T06:12:11;18.90;99.90
24614;DHT22;12760;46.296;25.290;2023-08-07T06:14:37;19.00;99.90
24614;DHT22;12760;46.296;25.290;2023-08-07T06:17:04;18.70;99.90
24614;DHT22;12760;46.296;25.290;2023-08-07T06:19:29;19.00;99.90
24614;DHT22;12760;46.296;25.290;2023-08-07T06:21:55;19.10;99.90
24614;DHT22;12760;46.296;25.290;2023-08-07T06:24:21;19.10;99.90
24614;DHT22;12760;46.296;25.290;2023-08-07T06:26:47;19.20;99.90
24614;DHT22;12760;46.296;25.290;2023-08-07T06:29:13;19.00;99.90
24614;DHT22;12760;46.296;25.290;2023-08-07T06:31:39;19.00;99.90
24614;DHT22;12760;46.296;25.290;2023-08-07T06:34:05;19.20;99.90
24614;DHT22;12760;46.296;25.290;2023-08-07T06:36:30;19.20;99.90
24614;DHT22;12760;46.296;25.290;2023-08-07T06:38:56;19.20;99.90
24614;DHT22;12760;46.296;25.290;2023-08-07T06:41:22;19.20;99.90
24614;DHT22;12760;46.296;25.290;2023-08-07T06:43:47;19.20;99.90
24614;DHT22;12760;46.296;25.290;2023-08-07T06:46:13;19.10;99.90
24614;DHT22;12760;46.296;25.290;2023-08-07T06:48:39;19.10;99.90
24614;DHT22;12760;46.296;25.290;2023-08-07T06:51:04;19.30;99.90
24614;DHT22;12760;46.296;25.290;2023-08-07T06:53:30;19.40;99.90
24614;DHT22;12760;46.296;25.290;2023-08-07T06:55:56;19.50;99.90
24614;DHT22;12760;46.296;25.290;2023-08-07T06:58:21;19.70;99.90
24614;DHT22;12760;46.296;25.290;2023-08-07T07:00:47;19.60;99.90
24614;DHT22;12760;46.296;25.290;2023-08-07T07:03:13;19.50;99.90
24614;DHT22;12760;46.296;25.290;2023-08-07T07:05:39;19.60;99.90
24614;DHT22;12760;46.296;25.290;2023-08-07T07:08:04;19.70;99.90
24614;DHT22;12760;46.296;25.290;2023-08-07T07:10:30;19.80;99.90
24614;DHT22;12760;46.296;25.290;2023-08-07T07:12:56;19.60;99.90
24614;DHT22;12760;46.296;25.290;2023-08-07T07:15:22;19.80;99.90
24614;DHT22;12760;46.296;25.290;2023-08-07T07:17:47;19.90;99.90
24614;DHT22;12760;46.296;25.290;2023-08-07T07:20:13;19.90;99.90
24614;DHT22;12760;46.296;25.290;2023-08-07T07:22:39;20.00;99.90
24614;DHT22;12760;46.296;25.290;2023-08-07T07:25:05;20.20;99.90
24614;DHT22;12760;46.296;25.290;2023-08-07T07:27:31;20.30;99.90
24614;DHT22;12760;46.296;25.290;2023-08-07T07:29:57;20.40;99.90
24614;DHT22;12760;46.296;25.290;2023-08-07T07:32:22;20.60;99.90
24614;DHT22;12760;46.296;25.290;2023-08-07T07:34:48;20.80;99.90
24614;DHT22;12760;46.296;25.290;2023-08-07T07:37:14;21.00;99.90
24614;DHT22;12760;46.296;25.290;2023-08-07T07:39:42;20.80;99.90
24614;DHT22;12760;46.296;25.290;2023-08-07T07:42:08;20.70;99.90
24614;DHT22;12760;46.296;25.290;2023-08-07T07:44:33;20.80;99.90
24614;DHT22;12760;46.296;25.290;2023-08-07T07:47:01;20.90;99.90
24614;DHT22;12760;46.296;25.290;2023-08-07T07:49:27;20.90;99.90
24614;DHT22;12760;46.296;25.290;2023-08-07T07:51:53;20.80;99.90
24614;DHT22;12760;46.296;25.290;2023-08-07T07:54:18;20.80;99.90
24614;DHT22;12760;46.296;25.290;2023-08-07T07:56:44;20.80;99.90
24614;DHT22;12760;46.296;25.290;2023-08-07T07:59:11;20.70;99.90
24614;DHT22;12760;46.296;25.290;2023-08-07T08:01:37;20.80;99.90
24614;DHT22;12760;46.296;25.290;2023-08-07T08:04:03;20.80;99.90
24614;DHT22;12760;46.296;25.290;2023-08-07T08:06:29;20.70;99.90
24614;DHT22;12760;46.296;25.290;2023-08-07T08:08:56;20.60;99.90
24614;DHT22;12760;46.296;25.290;2023-08-07T08:11:22;20.60;99.90
24614;DHT22;12760;46.296;25.290;2023-08-07T08:13:48;20.70;99.90
24614;DHT22;12760;46.296;25.290;2023-08-07T08:16:14;20.70;99.90
24614;DHT22;12760;46.296;25.290;2023-08-07T08:18:40;20.60;99.90
24614;DHT22;12760;46.296;25.290;2023-08-07T08:21:05;20.60;99.90
24614;DHT22;12760;46.296;25.290;2023-08-07T08:23:32;20.60;99.90
24614;DHT22;12760;46.296;25.290;2023-08-07T08:25:58;20.60;99.90
24614;DHT22;12760;46.296;25.290;2023-08-07T08:28:23;20.60;99.90
24614;DHT22;12760;46.296;25.290;2023-08-07T08:30:49;20.70;99.90
24614;DHT22;12760;46.296;25.290;2023-08-07T08:33:15;20.70;99.90
24614;DHT22;12760;46.296;25.290;2023-08-07T08:35:40;20.50;99.90
24614;DHT22;12760;46.296;25.290;2023-08-07T08:38:06;20.50;99.90
24614;DHT22;12760;46.296;25.290;2023-08-07T08:40:33;20.50;99.90
24614;DHT22;12760;46.296;25.290;2023-08-07T08:43:00;20.50;99.90
24614;DHT22;12760;46.296;25.290;2023-08-07T08:45:27;20.60;99.90
24614;DHT22;12760;46.296;25.290;2023-08-07T08:47:56;20.50;99.90
24614;DHT22;12760;46.296;25.290;2023-08-07T08:50:23;20.50;99.90
24614;DHT22;12760;46.296;25.290;2023-08-07T08:52:51;20.60;99.90
24614;DHT22;12760;46.296;25.290;2023-08-07T08:55:20;20.60;99.90
24614;DHT22;12760;46.296;25.290;2023-08-07T08:57:46;20.40;99.90
24614;DHT22;12760;46.296;25.290;2023-08-07T09:00:14;20.30;99.90
24614;DHT22;12760;46.296;25.290;2023-08-07T09:02:53;20.00;99.90
24614;DHT22;12760;46.296;25.290;2023-08-07T09:05:19;20.10;99.90
24614;DHT22;12760;46.296;25.290;2023-08-07T09:07:49;20.30;99.90
24614;DHT22;12760;46.296;25.290;2023-08-07T09:10:15;20.30;99.90
24614;DHT22;12760;46.296;25.290;2023-08-07T09:12:49;20.40;99.90
24614;DHT22;12760;46.296;25.290;2023-08-07T09:15:19;20.60;99.90
24614;DHT22;12760;46.296;25.290;2023-08-07T09:17:46;20.70;99.90
24614;DHT22;12760;46.296;25.290;2023-08-07T09:20:12;20.80;99.90
24614;DHT22;12760;46.296;25.290;2023-08-07T09:22:40;21.00;99.90
24614;DHT22;12760;46.296;25.290;2023-08-07T09:25:07;21.00;99.90
24614;DHT22;12760;46.296;25.290;2023-08-07T09:27:38;21.10;99.90
24614;DHT22;12760;46.296;25.290;2023-08-07T09:30:05;21.20;99.90
24614;DHT22;12760;46.296;25.290;2023-08-07T09:32:33;21.20;99.90
24614;DHT22;12760;46.296;25.290;2023-08-07T09:35:02;21.20;99.90
24614;DHT22;12760;46.296;25.290;2023-08-07T09:37:29;21.20;99.90
24614;DHT22;12760;46.296;25.290;2023-08-07T09:39:54;21.10;99.90
24614;DHT22;12760;46.296;25.290;2023-08-07T09:42:21;21.00;99.90
24614;DHT22;12760;46.296;25.290;2023-08-07T09:44:46;21.00;99.90
24614;DHT22;12760;46.296;25.290;2023-08-07T09:47:18;21.10;99.90
24614;DHT22;12760;46.296;25.290;2023-08-07T09:49:45;21.20;99.90
24614;DHT22;12760;46.296;25.290;2023-08-07T09:52:12;21.20;99.90
24614;DHT22;12760;46.296;25.290;2023-08-07T09:54:41;21.20;99.90
24614;DHT22;12760;46.296;25.290;2023-08-07T09:57:07;21.20;99.90
24614;DHT22;12760;46.296;25.290;2023-08-07T09:59:33;21.20;99.90
24614;DHT22;12760;46.296;25.290;2023-08-07T10:02:00;21.30;99.90
24614;DHT22;12760;46.296;25.290;2023-08-07T10:04:28;21.40;99.90
24614;DHT22;12760;46.296;25.290;2023-08-07T10:06:54;21.40;99.90
24614;DHT22;12760;46.296;25.290;2023-08-07T10:09:20;21.40;99.90
24614;DHT22;12760;46.296;25.290;2023-08-07T10:11:46;21.50;99.90
24614;DHT22;12760;46.296;25.290;2023-08-07T10:14:14;21.60;99.90
24614;DHT22;12760;46.296;25.290;2023-08-07T10:16:40;21.70;99.90
24614;DHT22;12760;46.296;25.290;2023-08-07T10:19:07;21.60;99.90
24614;DHT22;12760;46.296;25.290;2023-08-07T10:21:40;21.60;99.90
24614;DHT22;12760;46.296;25.290;2023-08-07T10:24:08;21.60;99.90
24614;DHT22;12760;46.296;25.290;2023-08-07T10:26:37;21.40;99.90
24614;DHT22;12760;46.296;25.290;2023-08-07T10:29:09;21.40;99.90
24614;DHT22;12760;46.296;25.290;2023-08-07T10:31:36;21.50;99.90
24614;DHT22;12760;46.296;25.290;2023-08-07T10:34:02;21.50;99.90
24614;DHT22;12760;46.296;25.290;2023-08-07T10:36:36;21.60;99.90
24614;DHT22;12760;46.296;25.290;2023-08-07T10:39:10;21.70;99.90
24614;DHT22;12760;46.296;25.290;2023-08-07T10:41:46;21.70;99.90
24614;DHT22;12760;46.296;25.290;2023-08-07T10:44:26;21.70;99.90
24614;DHT22;12760;46.296;25.290;2023-08-07T10:46:56;21.80;99.90
24614;DHT22;12760;46.296;25.290;2023-08-07T10:49:37;22.10;99.90
24614;DHT22;12760;46.296;25.290;2023-08-07T10:52:12;22.20;99.90
24614;DHT22;12760;46.296;25.290;2023-08-07T10:54:48;22.50;99.90
24614;DHT22;12760;46.296;25.290;2023-08-07T10:57:16;22.50;99.90
24614;DHT22;12760;46.296;25.290;2023-08-07T11:00:02;22.40;99.90
24614;DHT22;12760;46.296;25.290;2023-08-07T11:02:31;22.20;99.90
24614;DHT22;12760;46.296;25.290;2023-08-07T11:04:58;22.30;99.90
24614;DHT22;12760;46.296;25.290;2023-08-07T11:07:25;22.30;99.90
24614;DHT22;12760;46.296;25.290;2023-08-07T11:09:51;22.30;99.90
24614;DHT22;12760;46.296;25.290;2023-08-07T11:12:18;22.50;99.90
24614;DHT22;12760;46.296;25.290;2023-08-07T11:14:44;22.50;99.90
24614;DHT22;12760;46.296;25.290;2023-08-07T11:17:10;22.70;99.90
24614;DHT22;12760;46.296;25.290;2023-08-07T11:19:36;22.80;99.90
24614;DHT22;12760;46.296;25.290;2023-08-07T11:22:02;22.70;99.90
24614;DHT22;12760;46.296;25.290;2023-08-07T11:24:28;22.50;99.90
24614;DHT22;12760;46.296;25.290;2023-08-07T11:26:55;22.70;99.90
24614;DHT22;12760;46.296;25.290;2023-08-07T11:29:22;22.80;99.90
24614;DHT22;12760;46.296;25.290;2023-08-07T11:31:52;23.00;99.90
24614;DHT22;12760;46.296;25.290;2023-08-07T11:34:18;23.30;99.90
24614;DHT22;12760;46.296;25.290;2023-08-07T11:36:44;23.30;99.90
24614;DHT22;12760;46.296;25.290;2023-08-07T11:39:12;23.30;99.90
24614;DHT22;12760;46.296;25.290;2023-08-07T11:41:38;23.40;99.90
24614;DHT22;12760;46.296;25.290;2023-08-07T11:44:04;23.60;99.90
24614;DHT22;12760;46.296;25.290;2023-08-07T11:46:30;23.40;99.90
24614;DHT22;12760;46.296;25.290;2023-08-07T11:48:56;23.40;99.90
24614;DHT22;12760;46.296;25.290;2023-08-07T11:51:22;23.70;99.90
24614;DHT22;12760;46.296;25.290;2023-08-07T11:53:48;23.70;99.90
24614;DHT22;12760;46.296;25.290;2023-08-07T11:56:14;23.60;99.90
24614;DHT22;12760;46.296;25.290;2023-08-07T11:58:48;23.60;99.90
24614;DHT22;12760;46.296;25.290;2023-08-07T12:01:21;23.60;99.90
24614;DHT22;12760;46.296;25.290;2023-08-07T12:06:26;24.10;99.90
24614;DHT22;12760;46.296;25.290;2023-08-07T12:08:56;24.20;99.90
24614;DHT22;12760;46.296;25.290;2023-08-07T12:11:23;24.00;99.90
24614;DHT22;12760;46.296;25.290;2023-08-07T12:13:49;23.70;99.90
24614;DHT22;12760;46.296;25.290;2023-08-07T12:16:16;24.00;99.90
24614;DHT22;12760;46.296;25.290;2023-08-07T12:18:46;23.80;99.90
24614;DHT22;12760;46.296;25.290;2023-08-07T12:21:15;24.00;99.90
24614;DHT22;12760;46.296;25.290;2023-08-07T12:23:41;24.20;99.90
24614;DHT22;12760;46.296;25.290;2023-08-07T12:26:07;24.40;99.90
24614;DHT22;12760;46.296;25.290;2023-08-07T12:28:34;24.50;99.90
24614;DHT22;12760;46.296;25.290;2023-08-07T12:31:01;24.50;99.90
24614;DHT22;12760;46.296;25.290;2023-08-07T12:33:28;24.40;99.70
24614;DHT22;12760;46.296;25.290;2023-08-07T12:35:54;24.20;99.70
24614;DHT22;12760;46.296;25.290;2023-08-07T12:38:20;23.70;99.60
24614;DHT22;12760;46.296;25.290;2023-08-07T12:40:46;23.50;99.90
24614;DHT22;12760;46.296;25.290;2023-08-07T12:43:12;23.70;99.90
24614;DHT22;12760;46.296;25.290;2023-08-07T12:45:38;23.80;99.90
24614;DHT22;12760;46.296;25.290;2023-08-07T12:48:04;24.00;99.70
24614;DHT22;12760;46.296;25.290;2023-08-07T12:50:30;24.10;99.90
24614;DHT22;12760;46.296;25.290;2023-08-07T12:52:56;23.90;99.30
24614;DHT22;12760;46.296;25.290;2023-08-07T12:55:22;23.90;99.90
24614;DHT22;12760;46.296;25.290;2023-08-07T12:57:47;24.10;99.90
24614;DHT22;12760;46.296;25.290;2023-08-07T13:00:17;24.30;99.90
24614;DHT22;12760;46.296;25.290;2023-08-07T13:02:47;24.40;99.90
24614;DHT22;12760;46.296;25.290;2023-08-07T13:05:14;24.50;99.10
24614;DHT22;12760;46.296;25.290;2023-08-07T13:07:41;24.50;98.80
24614;DHT22;12760;46.296;25.290;2023-08-07T13:10:08;24.30;99.50
24614;DHT22;12760;46.296;25.290;2023-08-07T13:12:36;24.20;98.70
24614;DHT22;12760;46.296;25.290;2023-08-07T13:15:03;24.20;98.50
24614;DHT22;12760;46.296;25.290;2023-08-07T13:17:30;24.20;99.50
24614;DHT22;12760;46.296;25.290;2023-08-07T13:19:56;24.40;98.60
24614;DHT22;12760;46.296;25.290;2023-08-07T13:22:22;24.50;98.80
24614;DHT22;12760;46.296;25.290;2023-08-07T13:24:47;24.50;98.20
24614;DHT22;12760;46.296;25.290;2023-08-07T13:27:13;24.50;97.50
24614;DHT22;12760;46.296;25.290;2023-08-07T13:29:39;24.50;98.20
24614;DHT22;12760;46.296;25.290;2023-08-07T13:32:05;24.40;97.70
24614;DHT22;12760;46.296;25.290;2023-08-07T13:34:38;24.50;98.20
24614;DHT22;12760;46.296;25.290;2023-08-07T13:37:05;24.40;98.50
24614;DHT22;12760;46.296;25.290;2023-08-07T13:39:31;24.50;98.30
24614;DHT22;12760;46.296;25.290;2023-08-07T13:41:57;24.60;99.10
24614;DHT22;12760;46.296;25.290;2023-08-07T13:44:23;24.80;98.90
24614;DHT22;12760;46.296;25.290;2023-08-07T13:46:48;24.80;98.10
24614;DHT22;12760;46.296;25.290;2023-08-07T13:49:14;24.80;98.30
24614;DHT22;12760;46.296;25.290;2023-08-07T13:51:43;24.80;98.80
24614;DHT22;12760;46.296;25.290;2023-08-07T13:54:09;24.80;98.40
24614;DHT22;12760;46.296;25.290;2023-08-07T13:56:35;24.70;99.20
24614;DHT22;12760;46.296;25.290;2023-08-07T13:59:01;24.50;99.90
24614;DHT22;12760;46.296;25.290;2023-08-07T14:01:27;24.30;99.90
24614;DHT22;12760;46.296;25.290;2023-08-07T14:03:54;24.20;99.90
24614;DHT22;12760;46.296;25.290;2023-08-07T14:06:20;24.00;99.90
24614;DHT22;12760;46.296;25.290;2023-08-07T14:08:46;24.00;99.90
24614;DHT22;12760;46.296;25.290;2023-08-07T14:11:12;23.90;99.90
24614;DHT22;12760;46.296;25.290;2023-08-07T14:13:40;23.90;99.90
24614;DHT22;12760;46.296;25.290;2023-08-07T14:16:06;23.90;99.90
24614;DHT22;12760;46.296;25.290;2023-08-07T14:18:32;24.00;99.90
24614;DHT22;12760;46.296;25.290;2023-08-07T14:20:58;24.00;99.90
24614;DHT22;12760;46.296;25.290;2023-08-07T14:23:23;24.10;99.90
24614;DHT22;12760;46.296;25.290;2023-08-07T14:25:49;24.10;99.90
24614;DHT22;12760;46.296;25.290;2023-08-07T14:28:17;24.00;99.90
24614;DHT22;12760;46.296;25.290;2023-08-07T14:30:42;24.00;99.90
24614;DHT22;12760;46.296;25.290;2023-08-07T14:33:08;24.00;99.90
24614;DHT22;12760;46.296;25.290;2023-08-07T14:35:34;23.90;99.90
24614;DHT22;12760;46.296;25.290;2023-08-07T14:38:00;23.80;99.90
24614;DHT22;12760;46.296;25.290;2023-08-07T14:40:26;23.70;99.90
24614;DHT22;12760;46.296;25.290;2023-08-07T14:42:53;23.70;99.90
24614;DHT22;12760;46.296;25.290;2023-08-07T14:45:20;23.60;99.90
24614;DHT22;12760;46.296;25.290;2023-08-07T14:47:46;23.70;99.90
24614;DHT22;12760;46.296;25.290;2023-08-07T14:50:12;23.70;99.90
24614;DHT22;12760;46.296;25.290;2023-08-07T14:52:37;23.80;99.90
24614;DHT22;12760;46.296;25.290;2023-08-07T14:55:03;23.80;99.90
24614;DHT22;12760;46.296;25.290;2023-08-07T14:57:29;23.80;99.90
24614;DHT22;12760;46.296;25.290;2023-08-07T14:59:55;23.80;99.90
24614;DHT22;12760;46.296;25.290;2023-08-07T15:02:21;23.70;99.90
24614;DHT22;12760;46.296;25.290;2023-08-07T15:04:46;23.70;99.90
24614;DHT22;12760;46.296;25.290;2023-08-07T15:07:12;23.70;99.90
24614;DHT22;12760;46.296;25.290;2023-08-07T15:09:38;23.80;99.90
24614;DHT22;12760;46.296;25.290;2023-08-07T15:12:04;23.80;99.90
24614;DHT22;12760;46.296;25.290;2023-08-07T15:14:32;23.90;99.90
24614;DHT22;12760;46.296;25.290;2023-08-07T15:16:58;23.90;99.90
24614;DHT22;12760;46.296;25.290;2023-08-07T15:19:23;24.00;99.90
24614;DHT22;12760;46.296;25.290;2023-08-07T15:21:52;23.90;99.90
24614;DHT22;12760;46.296;25.290;2023-08-07T15:24:18;24.00;99.90